Terminal Aerodrome Forecast
Issued by NWS

Home | Current Version | Previous Version | Text Only | Print | Product List | Glossary On
Versions: 1 2 3 4 5 6 7 8 9 10 11 12 13 14 15 16 17 18 19 20 21 22 23 24 25 26 27 28 29 30 31 32 33 34 35 36
000
FTUS42 KGSP 210500
TAFHKY
TAF
KHKY 210524Z 2106/2206 00000KT P6SM BKN150
     FM210900 26003KT 5SM BR FEW250
     FM211300 27005KT P6SM FEW250
     FM211800 30011KT P6SM SCT045
     FM220000 33009G20KT P6SM FEW040=

USA.gov is the U.S. government's official web portal to all federal, state and local government web resources and services.